sensor_id;sensor_type;location;lat;lon;timestamp;pressure;altitude;pressure_sealevel;temperature;humidity
53550;BME280;67273;52.914;-0.982;2023-02-02T00:01:30;101951.91;;;15.87;42.28
53550;BME280;67273;52.914;-0.982;2023-02-02T00:03:57;101952.72;;;15.88;42.45
53550;BME280;67273;52.914;-0.982;2023-02-02T00:06:24;101961.72;;;15.88;42.44
53550;BME280;67273;52.914;-0.982;2023-02-02T00:08:50;101955.44;;;15.88;42.47
53550;BME280;67273;52.914;-0.982;2023-02-02T00:11:17;101948.53;;;15.85;42.33
53550;BME280;67273;52.914;-0.982;2023-02-02T00:13:43;101936.88;;;15.85;42.58
53550;BME280;67273;52.914;-0.982;2023-02-02T00:16:44;101937.69;;;15.85;42.40
53550;BME280;67273;52.914;-0.982;2023-02-02T00:19:12;101927.88;;;15.84;42.43
53550;BME280;67273;52.914;-0.982;2023-02-02T00:21:38;101936.19;;;15.83;42.43
53550;BME280;67273;52.914;-0.982;2023-02-02T00:24:05;101927.22;;;15.82;42.53
53550;BME280;67273;52.914;-0.982;2023-02-02T00:26:31;101942.66;;;15.82;42.69
53550;BME280;67273;52.914;-0.982;2023-02-02T00:28:57;101949.97;;;15.81;42.43
53550;BME280;67273;52.914;-0.982;2023-02-02T00:31:23;101959.09;;;15.80;42.75
53550;BME280;67273;52.914;-0.982;2023-02-02T00:33:50;101959.09;;;15.80;42.27
53550;BME280;67273;52.914;-0.982;2023-02-02T00:36:17;101954.69;;;15.79;42.76
53550;BME280;67273;52.914;-0.982;2023-02-02T00:38:43;101952.00;;;15.79;42.57
53550;BME280;67273;52.914;-0.982;2023-02-02T00:41:09;101953.88;;;15.78;42.58
53550;BME280;67273;52.914;-0.982;2023-02-02T00:43:34;101955.75;;;15.78;42.49
53550;BME280;67273;52.914;-0.982;2023-02-02T00:46:00;101953.03;;;15.78;42.87
53550;BME280;67273;52.914;-0.982;2023-02-02T00:48:26;101951.34;;;15.77;42.44
53550;BME280;67273;52.914;-0.982;2023-02-02T00:50:53;101948.63;;;15.77;42.32
53550;BME280;67273;52.914;-0.982;2023-02-02T00:53:19;101946.09;;;15.75;42.71
53550;BME280;67273;52.914;-0.982;2023-02-02T00:55:46;101953.22;;;15.76;42.41
53550;BME280;67273;52.914;-0.982;2023-02-02T00:58:11;101946.97;;;15.76;42.40
53550;BME280;67273;52.914;-0.982;2023-02-02T01:00:37;101955.28;;;15.74;42.70
53550;BME280;67273;52.914;-0.982;2023-02-02T01:03:03;101956.94;;;15.75;42.79
53550;BME280;67273;52.914;-0.982;2023-02-02T01:05:30;101960.69;;;15.74;42.73
53550;BME280;67273;52.914;-0.982;2023-02-02T01:07:57;101976.97;;;15.74;42.51
53550;BME280;67273;52.914;-0.982;2023-02-02T01:10:23;101994.03;;;15.75;42.69
53550;BME280;67273;52.914;-0.982;2023-02-02T01:12:49;101985.09;;;15.74;42.51
53550;BME280;67273;52.914;-0.982;2023-02-02T01:15:15;101988.63;;;15.75;42.54
53550;BME280;67273;52.914;-0.982;2023-02-02T01:17:42;101980.66;;;15.73;42.64
53550;BME280;67273;52.914;-0.982;2023-02-02T01:20:13;101974.41;;;15.73;42.57
53550;BME280;67273;52.914;-0.982;2023-02-02T01:22:40;101975.22;;;15.73;42.80
53550;BME280;67273;52.914;-0.982;2023-02-02T01:25:07;101980.66;;;15.73;42.86
53550;BME280;67273;52.914;-0.982;2023-02-02T01:27:33;101979.00;;;15.72;42.70
53550;BME280;67273;52.914;-0.982;2023-02-02T01:29:59;101977.28;;;15.71;42.33
53550;BME280;67273;52.914;-0.982;2023-02-02T01:32:25;101980.19;;;15.70;42.48
53550;BME280;67273;52.914;-0.982;2023-02-02T01:34:51;101981.00;;;15.70;42.75
53550;BME280;67273;52.914;-0.982;2023-02-02T01:37:17;101973.94;;;15.69;42.39
53550;BME280;67273;52.914;-0.982;2023-02-02T01:39:42;101986.44;;;15.70;42.61
53550;BME280;67273;52.914;-0.982;2023-02-02T01:42:13;101976.81;;;15.68;42.55
53550;BME280;67273;52.914;-0.982;2023-02-02T01:45:12;101987.47;;;15.69;42.83
53550;BME280;67273;52.914;-0.982;2023-02-02T01:47:46;101986.66;;;15.69;42.44
53550;BME280;67273;52.914;-0.982;2023-02-02T01:50:15;101991.19;;;15.68;42.86
53550;BME280;67273;52.914;-0.982;2023-02-02T01:52:44;101992.25;;;15.67;42.64
53550;BME280;67273;52.914;-0.982;2023-02-02T01:55:13;101997.66;;;15.67;42.46
53550;BME280;67273;52.914;-0.982;2023-02-02T01:57:44;101985.13;;;15.66;42.93
53550;BME280;67273;52.914;-0.982;2023-02-02T02:00:13;101982.44;;;15.66;42.76
53550;BME280;67273;52.914;-0.982;2023-02-02T02:02:41;101989.72;;;15.66;42.36
53550;BME280;67273;52.914;-0.982;2023-02-02T02:05:10;101988.03;;;15.65;42.85
53550;BME280;67273;52.914;-0.982;2023-02-02T02:07:39;101995.31;;;15.64;42.66
53550;BME280;67273;52.914;-0.982;2023-02-02T02:10:08;101986.38;;;15.64;42.70
53550;BME280;67273;52.914;-0.982;2023-02-02T02:12:34;101986.38;;;15.64;42.45
53550;BME280;67273;52.914;-0.982;2023-02-02T02:15:01;101988.22;;;15.63;42.80
53550;BME280;67273;52.914;-0.982;2023-02-02T02:18:00;102001.75;;;15.63;42.52
53550;BME280;67273;52.914;-0.982;2023-02-02T02:20:47;102001.75;;;15.63;42.56
53550;BME280;67273;52.914;-0.982;2023-02-02T02:24:05;101994.69;;;15.62;42.69
53550;BME280;67273;52.914;-0.982;2023-02-02T02:27:48;101989.25;;;15.62;42.58
53550;BME280;67273;52.914;-0.982;2023-02-02T02:33:24;101988.44;;;15.62;42.48
53550;BME280;67273;52.914;-0.982;2023-02-02T02:35:57;101984.84;;;15.61;42.70
53550;BME280;67273;52.914;-0.982;2023-02-02T02:38:30;101977.78;;;15.60;42.68
53550;BME280;67273;52.914;-0.982;2023-02-02T02:41:02;101979.44;;;15.61;42.54
53550;BME280;67273;52.914;-0.982;2023-02-02T02:43:33;101977.78;;;15.60;42.49
53550;BME280;67273;52.914;-0.982;2023-02-02T02:46:01;101981.31;;;15.61;42.62
53550;BME280;67273;52.914;-0.982;2023-02-02T02:48:30;101984.22;;;15.59;42.79
53550;BME280;67273;52.914;-0.982;2023-02-02T02:51:04;101976.06;;;15.59;42.68
53550;BME280;67273;52.914;-0.982;2023-02-02T02:53:30;101981.50;;;15.59;42.30
53550;BME280;67273;52.914;-0.982;2023-02-02T02:56:05;101984.22;;;15.59;42.69
53550;BME280;67273;52.914;-0.982;2023-02-02T02:58:39;101990.44;;;15.59;42.27
53550;BME280;67273;52.914;-0.982;2023-02-02T03:01:13;101977.13;;;15.58;42.54
53550;BME280;67273;52.914;-0.982;2023-02-02T03:03:52;101970.00;;;15.57;42.39
53550;BME280;67273;52.914;-0.982;2023-02-02T03:06:27;101958.34;;;15.56;42.47
53550;BME280;67273;52.914;-0.982;2023-02-02T03:08:59;101964.59;;;15.57;42.75
53550;BME280;67273;52.914;-0.982;2023-02-02T03:11:27;101951.22;;;15.55;42.58
53550;BME280;67273;52.914;-0.982;2023-02-02T03:13:54;101962.06;;;15.55;42.48
53550;BME280;67273;52.914;-0.982;2023-02-02T03:16:20;101957.47;;;15.56;42.79
53550;BME280;67273;52.914;-0.982;2023-02-02T03:18:47;101961.22;;;15.55;42.66
53550;BME280;67273;52.914;-0.982;2023-02-02T03:21:13;101961.22;;;15.55;42.95
53550;BME280;67273;52.914;-0.982;2023-02-02T03:23:39;101958.72;;;15.53;42.57
53550;BME280;67273;52.914;-0.982;2023-02-02T03:26:05;101963.28;;;15.53;42.74
53550;BME280;67273;52.914;-0.982;2023-02-02T03:28:31;101957.88;;;15.53;42.72
53550;BME280;67273;52.914;-0.982;2023-02-02T03:30:58;101957.88;;;15.53;42.71
53550;BME280;67273;52.914;-0.982;2023-02-02T03:33:26;101962.44;;;15.52;42.36
53550;BME280;67273;52.914;-0.982;2023-02-02T03:35:53;101967.00;;;15.52;42.88
53550;BME280;67273;52.914;-0.982;2023-02-02T03:38:19;101981.56;;;15.51;42.77
53550;BME280;67273;52.914;-0.982;2023-02-02T03:40:45;101976.16;;;15.51;42.42
53550;BME280;67273;52.914;-0.982;2023-02-02T03:43:10;101975.31;;;15.50;42.73
53550;BME280;67273;52.914;-0.982;2023-02-02T03:45:36;101985.31;;;15.50;42.65
53550;BME280;67273;52.914;-0.982;2023-02-02T03:48:05;101990.75;;;15.50;42.66
53550;BME280;67273;52.914;-0.982;2023-02-02T03:50:31;101989.91;;;15.49;42.46
53550;BME280;67273;52.914;-0.982;2023-02-02T03:52:58;101982.78;;;15.48;42.92
53550;BME280;67273;52.914;-0.982;2023-02-02T03:55:24;101973.84;;;15.48;42.54
53550;BME280;67273;52.914;-0.982;2023-02-02T03:57:50;101975.50;;;15.49;42.43
53550;BME280;67273;52.914;-0.982;2023-02-02T04:00:16;101965.72;;;15.48;42.54
53550;BME280;67273;52.914;-0.982;2023-02-02T04:02:42;101974.69;;;15.48;42.97
53550;BME280;67273;52.914;-0.982;2023-02-02T04:05:08;101969.44;;;15.47;42.58
53550;BME280;67273;52.914;-0.982;2023-02-02T04:07:34;101974.69;;;15.48;42.59
53550;BME280;67273;52.914;-0.982;2023-02-02T04:10:01;101973.84;;;15.48;42.93
53550;BME280;67273;52.914;-0.982;2023-02-02T04:12:26;101965.72;;;15.48;42.53
53550;BME280;67273;52.914;-0.982;2023-02-02T04:14:52;101966.72;;;15.47;42.48
53550;BME280;67273;52.914;-0.982;2023-02-02T04:17:18;101968.44;;;15.48;42.61
53550;BME280;67273;52.914;-0.982;2023-02-02T04:19:44;101961.50;;;15.45;42.66
53550;BME280;67273;52.914;-0.982;2023-02-02T04:22:10;101962.34;;;15.46;42.54
53550;BME280;67273;52.914;-0.982;2023-02-02T04:24:36;101960.47;;;15.46;42.44
53550;BME280;67273;52.914;-0.982;2023-02-02T04:27:03;101957.94;;;15.45;42.40
53550;BME280;67273;52.914;-0.982;2023-02-02T04:29:28;101951.53;;;15.46;42.59
53550;BME280;67273;52.914;-0.982;2023-02-02T04:31:54;101945.25;;;15.45;42.48
53550;BME280;67273;52.914;-0.982;2023-02-02T04:34:20;101955.25;;;15.45;42.74
53550;BME280;67273;52.914;-0.982;2023-02-02T04:36:46;101955.25;;;15.45;42.79
53550;BME280;67273;52.914;-0.982;2023-02-02T04:39:12;101942.72;;;15.44;42.87
53550;BME280;67273;52.914;-0.982;2023-02-02T04:41:38;101953.56;;;15.44;42.57
53550;BME280;67273;52.914;-0.982;2023-02-02T04:44:12;101952.72;;;15.43;42.57
53550;BME280;67273;52.914;-0.982;2023-02-02T04:46:38;101958.13;;;15.43;42.52
53550;BME280;67273;52.914;-0.982;2023-02-02T04:49:04;101955.59;;;15.42;42.76
53550;BME280;67273;52.914;-0.982;2023-02-02T04:51:30;101965.44;;;15.43;42.96
53550;BME280;67273;52.914;-0.982;2023-02-02T04:53:56;101954.78;;;15.41;42.94
53550;BME280;67273;52.914;-0.982;2023-02-02T04:56:21;101961.88;;;15.42;42.39
53550;BME280;67273;52.914;-0.982;2023-02-02T04:58:47;101961.03;;;15.42;42.70
53550;BME280;67273;52.914;-0.982;2023-02-02T05:01:16;101963.72;;;15.42;42.83
53550;BME280;67273;52.914;-0.982;2023-02-02T05:03:43;101969.16;;;15.42;42.77
53550;BME280;67273;52.914;-0.982;2023-02-02T05:06:09;101971.84;;;15.42;42.92
53550;BME280;67273;52.914;-0.982;2023-02-02T05:08:35;101978.31;;;15.40;42.74
53550;BME280;67273;52.914;-0.982;2023-02-02T05:11:05;101992.69;;;15.41;42.89
53550;BME280;67273;52.914;-0.982;2023-02-02T05:13:31;101991.00;;;15.40;42.65
53550;BME280;67273;52.914;-0.982;2023-02-02T05:15:57;101989.97;;;15.41;42.86
53550;BME280;67273;52.914;-0.982;2023-02-02T05:18:24;101999.34;;;15.38;42.72
53550;BME280;67273;52.914;-0.982;2023-02-02T05:20:50;101992.03;;;15.39;42.47
53550;BME280;67273;52.914;-0.982;2023-02-02T05:23:16;101993.91;;;15.38;42.70
53550;BME280;67273;52.914;-0.982;2023-02-02T05:25:42;101995.59;;;15.39;42.46
53550;BME280;67273;52.914;-0.982;2023-02-02T05:28:08;101991.22;;;15.38;42.56
53550;BME280;67273;52.914;-0.982;2023-02-02T05:30:33;101987.63;;;15.38;42.94
53550;BME280;67273;52.914;-0.982;2023-02-02T05:32:59;101981.38;;;15.37;42.80
53550;BME280;67273;52.914;-0.982;2023-02-02T05:35:26;101985.78;;;15.38;42.79
53550;BME280;67273;52.914;-0.982;2023-02-02T05:37:52;101984.94;;;15.38;43.08
53550;BME280;67273;52.914;-0.982;2023-02-02T05:40:18;101979.50;;;15.38;42.82
53550;BME280;67273;52.914;-0.982;2023-02-02T05:42:46;101980.56;;;15.37;42.77
53550;BME280;67273;52.914;-0.982;2023-02-02T05:45:12;101977.84;;;15.37;42.92
53550;BME280;67273;52.914;-0.982;2023-02-02T05:47:38;101970.75;;;15.36;43.09
53550;BME280;67273;52.914;-0.982;2023-02-02T05:50:04;101968.88;;;15.36;42.91
53550;BME280;67273;52.914;-0.982;2023-02-02T05:52:33;101965.31;;;15.36;42.92
53550;BME280;67273;52.914;-0.982;2023-02-02T05:54:59;101967.19;;;15.35;42.96
53550;BME280;67273;52.914;-0.982;2023-02-02T05:57:25;101969.06;;;15.35;42.78
53550;BME280;67273;52.914;-0.982;2023-02-02T05:59:52;101980.75;;;15.35;42.92
53550;BME280;67273;52.914;-0.982;2023-02-02T06:02:18;101975.31;;;15.35;42.85
53550;BME280;67273;52.914;-0.982;2023-02-02T06:04:44;101988.88;;;15.35;42.97
53550;BME280;67273;52.914;-0.982;2023-02-02T06:07:09;101983.63;;;15.34;42.91
53550;BME280;67273;52.914;-0.982;2023-02-02T06:09:36;101989.88;;;15.34;42.68
53550;BME280;67273;52.914;-0.982;2023-02-02T06:12:02;101987.16;;;15.34;42.80
53550;BME280;67273;52.914;-0.982;2023-02-02T06:14:28;101995.94;;;15.36;42.88
53550;BME280;67273;52.914;-0.982;2023-02-02T06:16:54;102000.16;;;15.39;43.17
53550;BME280;67273;52.914;-0.982;2023-02-02T06:19:20;101997.75;;;15.44;42.95
53550;BME280;67273;52.914;-0.982;2023-02-02T06:21:46;101990.75;;;15.50;42.90
53550;BME280;67273;52.914;-0.982;2023-02-02T06:24:11;101992.88;;;15.54;42.73
53550;BME280;67273;52.914;-0.982;2023-02-02T06:26:39;102003.81;;;15.61;42.34
53550;BME280;67273;52.914;-0.982;2023-02-02T06:29:04;102006.81;;;15.66;42.07
53550;BME280;67273;52.914;-0.982;2023-02-02T06:31:31;102007.09;;;15.71;42.08
53550;BME280;67273;52.914;-0.982;2023-02-02T06:33:58;102010.78;;;15.78;42.09
53550;BME280;67273;52.914;-0.982;2023-02-02T06:36:26;102018.81;;;15.87;42.36
53550;BME280;67273;52.914;-0.982;2023-02-02T06:38:53;102020.75;;;15.93;42.19
53550;BME280;67273;52.914;-0.982;2023-02-02T06:41:19;102033.19;;;16.02;41.86
53550;BME280;67273;52.914;-0.982;2023-02-02T06:43:47;102028.69;;;16.09;41.62
53550;BME280;67273;52.914;-0.982;2023-02-02T06:46:13;102030.47;;;16.17;42.01
53550;BME280;67273;52.914;-0.982;2023-02-02T06:48:39;102030.56;;;16.24;41.53
53550;BME280;67273;52.914;-0.982;2023-02-02T06:51:05;102040.66;;;16.30;41.82
53550;BME280;67273;52.914;-0.982;2023-02-02T06:53:31;102043.25;;;16.38;41.54
53550;BME280;67273;52.914;-0.982;2023-02-02T06:55:59;102040.41;;;16.46;41.66
53550;BME280;67273;52.914;-0.982;2023-02-02T06:58:26;102042.38;;;16.52;41.52
53550;BME280;67273;52.914;-0.982;2023-02-02T07:00:53;102045.81;;;16.61;41.42
53550;BME280;67273;52.914;-0.982;2023-02-02T07:03:20;102045.22;;;16.66;41.50
53550;BME280;67273;52.914;-0.982;2023-02-02T07:05:46;102050.91;;;16.71;41.25
53550;BME280;67273;52.914;-0.982;2023-02-02T07:08:12;102051.19;;;16.76;41.02
53550;BME280;67273;52.914;-0.982;2023-02-02T07:10:38;102049.94;;;16.79;41.50
53550;BME280;67273;52.914;-0.982;2023-02-02T07:13:05;102058.78;;;16.81;41.11
53550;BME280;67273;52.914;-0.982;2023-02-02T07:15:31;102052.13;;;16.83;41.11
53550;BME280;67273;52.914;-0.982;2023-02-02T07:17:58;102042.97;;;16.84;41.40
53550;BME280;67273;52.914;-0.982;2023-02-02T07:20:24;102051.75;;;16.86;41.57
53550;BME280;67273;52.914;-0.982;2023-02-02T07:22:50;102045.28;;;16.87;41.35
53550;BME280;67273;52.914;-0.982;2023-02-02T07:25:16;102039.47;;;16.90;41.28
53550;BME280;67273;52.914;-0.982;2023-02-02T07:27:41;102037.19;;;16.94;41.41
53550;BME280;67273;52.914;-0.982;2023-02-02T07:30:09;102040.97;;;16.93;41.57
53550;BME280;67273;52.914;-0.982;2023-02-02T07:32:34;102036.38;;;16.94;41.49
53550;BME280;67273;52.914;-0.982;2023-02-02T07:35:01;102032.59;;;16.95;41.47
53550;BME280;67273;52.914;-0.982;2023-02-02T07:37:27;102023.44;;;16.96;41.47
53550;BME280;67273;52.914;-0.982;2023-02-02T07:39:53;102036.00;;;16.97;41.19
53550;BME280;67273;52.914;-0.982;2023-02-02T07:42:19;102037.66;;;16.98;41.46
53550;BME280;67273;52.914;-0.982;2023-02-02T07:44:45;102043.09;;;16.98;41.41
53550;BME280;67273;52.914;-0.982;2023-02-02T07:47:11;102048.50;;;16.98;41.52
53550;BME280;67273;52.914;-0.982;2023-02-02T07:49:37;102049.34;;;16.98;41.41
53550;BME280;67273;52.914;-0.982;2023-02-02T07:52:04;102047.50;;;16.99;41.52
53550;BME280;67273;52.914;-0.982;2023-02-02T07:54:30;102049.34;;;16.98;41.57
53550;BME280;67273;52.914;-0.982;2023-02-02T07:56:56;102055.63;;;16.99;41.48
53550;BME280;67273;52.914;-0.982;2023-02-02T07:59:22;102060.00;;;17.00;41.82
53550;BME280;67273;52.914;-0.982;2023-02-02T08:01:48;102051.88;;;17.00;41.47
53550;BME280;67273;52.914;-0.982;2023-02-02T08:04:14;102055.63;;;16.99;41.45
53550;BME280;67273;52.914;-0.982;2023-02-02T08:06:40;102058.34;;;16.99;41.61
53550;BME280;67273;52.914;-0.982;2023-02-02T08:09:08;102058.34;;;16.99;41.53
53550;BME280;67273;52.914;-0.982;2023-02-02T08:11:35;102054.78;;;16.98;41.57
53550;BME280;67273;52.914;-0.982;2023-02-02T08:14:02;102058.34;;;16.99;41.54
53550;BME280;67273;52.914;-0.982;2023-02-02T08:16:29;102059.38;;;16.98;41.39
53550;BME280;67273;52.914;-0.982;2023-02-02T08:18:56;102061.06;;;16.99;41.30
53550;BME280;67273;52.914;-0.982;2023-02-02T08:21:22;102060.19;;;16.98;41.88
53550;BME280;67273;52.914;-0.982;2023-02-02T08:23:48;102066.59;;;17.12;42.49
53550;BME280;67273;52.914;-0.982;2023-02-02T08:26:17;102069.19;;;17.20;42.64
53550;BME280;67273;52.914;-0.982;2023-02-02T08:28:46;102067.13;;;17.22;43.02
53550;BME280;67273;52.914;-0.982;2023-02-02T08:31:14;102070.09;;;17.27;43.41
53550;BME280;67273;52.914;-0.982;2023-02-02T08:33:41;102068.91;;;17.37;43.71
53550;BME280;67273;52.914;-0.982;2023-02-02T08:36:10;102069.06;;;17.57;44.38
53550;BME280;67273;52.914;-0.982;2023-02-02T08:38:36;102072.09;;;17.68;45.60
53550;BME280;67273;52.914;-0.982;2023-02-02T08:41:06;102076.94;;;17.73;46.40
53550;BME280;67273;52.914;-0.982;2023-02-02T08:43:34;102072.34;;;17.74;46.78
53550;BME280;67273;52.914;-0.982;2023-02-02T08:46:00;102070.91;;;17.78;47.21
53550;BME280;67273;52.914;-0.982;2023-02-02T08:48:26;102072.34;;;17.74;46.90
53550;BME280;67273;52.914;-0.982;2023-02-02T08:50:52;102077.13;;;17.72;46.69
53550;BME280;67273;52.914;-0.982;2023-02-02T08:53:19;102070.25;;;17.76;46.55
53550;BME280;67273;52.914;-0.982;2023-02-02T08:55:45;102072.16;;;17.75;46.08
53550;BME280;67273;52.914;-0.982;2023-02-02T08:58:12;102080.75;;;17.79;46.11
53550;BME280;67273;52.914;-0.982;2023-02-02T09:00:39;102088.09;;;17.85;45.84
53550;BME280;67273;52.914;-0.982;2023-02-02T09:03:05;102084.53;;;17.84;45.67
53550;BME280;67273;52.914;-0.982;2023-02-02T09:05:30;102081.25;;;17.89;45.31
53550;BME280;67273;52.914;-0.982;2023-02-02T09:07:56;102086.28;;;17.92;45.36
53550;BME280;67273;52.914;-0.982;2023-02-02T09:10:22;102083.19;;;17.95;45.53
53550;BME280;67273;52.914;-0.982;2023-02-02T09:12:48;102077.34;;;17.98;45.41
53550;BME280;67273;52.914;-0.982;2023-02-02T09:15:14;102082.16;;;17.96;45.35
53550;BME280;67273;52.914;-0.982;2023-02-02T09:17:41;102089.00;;;17.92;45.10
53550;BME280;67273;52.914;-0.982;2023-02-02T09:20:07;102095.69;;;17.90;45.28
53550;BME280;67273;52.914;-0.982;2023-02-02T09:22:33;102093.16;;;17.88;45.62
53550;BME280;67273;52.914;-0.982;2023-02-02T09:24:59;102093.41;;;17.93;45.69
53550;BME280;67273;52.914;-0.982;2023-02-02T09:27:25;102099.69;;;17.94;45.85
53550;BME280;67273;52.914;-0.982;2023-02-02T09:29:50;102097.41;;;17.97;45.80
53550;BME280;67273;52.914;-0.982;2023-02-02T09:32:18;102089.88;;;17.99;45.86
53550;BME280;67273;52.914;-0.982;2023-02-02T09:34:45;102097.41;;;17.97;45.76
53550;BME280;67273;52.914;-0.982;2023-02-02T09:37:11;102096.97;;;17.94;45.81
53550;BME280;67273;52.914;-0.982;2023-02-02T09:39:36;102097.78;;;17.94;45.07
53550;BME280;67273;52.914;-0.982;2023-02-02T09:42:29;102099.50;;;17.95;45.79
53550;BME280;67273;52.914;-0.982;2023-02-02T09:45:04;102084.00;;;17.96;45.04
53550;BME280;67273;52.914;-0.982;2023-02-02T09:47:51;102094.69;;;17.97;44.84
53550;BME280;67273;52.914;-0.982;2023-02-02T09:50:26;102086.34;;;17.99;45.21
53550;BME280;67273;52.914;-0.982;2023-02-02T09:52:58;102088.22;;;17.98;44.91
53550;BME280;67273;52.914;-0.982;2023-02-02T09:55:31;102087.16;;;17.99;44.47
53550;BME280;67273;52.914;-0.982;2023-02-02T09:58:05;102100.75;;;17.99;44.42
53550;BME280;67273;52.914;-0.982;2023-02-02T10:00:34;102109.59;;;18.01;44.39
53550;BME280;67273;52.914;-0.982;2023-02-02T10:03:05;102100.38;;;18.02;44.58
53550;BME280;67273;52.914;-0.982;2023-02-02T10:05:43;102097.44;;;18.04;44.69
53550;BME280;67273;52.914;-0.982;2023-02-02T10:08:16;102111.88;;;18.04;44.52
53550;BME280;67273;52.914;-0.982;2023-02-02T10:10:46;102110.84;;;18.05;44.22
53550;BME280;67273;52.914;-0.982;2023-02-02T10:13:15;102111.69;;;18.06;44.66
53550;BME280;67273;52.914;-0.982;2023-02-02T10:15:45;102113.38;;;18.07;44.39
53550;BME280;67273;52.914;-0.982;2023-02-02T10:18:17;102103.34;;;18.08;44.60
53550;BME280;67273;52.914;-0.982;2023-02-02T10:20:50;102108.91;;;17.99;44.96
53550;BME280;67273;52.914;-0.982;2023-02-02T10:23:24;102104.75;;;17.75;49.03
53550;BME280;67273;52.914;-0.982;2023-02-02T10:25:55;102108.88;;;17.64;49.18
53550;BME280;67273;52.914;-0.982;2023-02-02T10:28:31;102104.66;;;17.62;49.36
53550;BME280;67273;52.914;-0.982;2023-02-02T10:31:03;102111.97;;;17.61;49.06
53550;BME280;67273;52.914;-0.982;2023-02-02T10:33:36;102111.34;;;17.59;49.32
53550;BME280;67273;52.914;-0.982;2023-02-02T10:36:09;102116.13;;;17.57;49.86
53550;BME280;67273;52.914;-0.982;2023-02-02T10:38:39;102112.78;;;17.55;49.40
53550;BME280;67273;52.914;-0.982;2023-02-02T10:41:14;102110.88;;;17.56;49.56
53550;BME280;67273;52.914;-0.982;2023-02-02T10:43:55;102118.03;;;17.63;48.35
53550;BME280;67273;52.914;-0.982;2023-02-02T10:46:29;102124.19;;;17.72;48.63
53550;BME280;67273;52.914;-0.982;2023-02-02T10:49:07;102115.25;;;17.78;47.84
53550;BME280;67273;52.914;-0.982;2023-02-02T10:51:38;102128.88;;;17.85;47.06
53550;BME280;67273;52.914;-0.982;2023-02-02T10:54:19;102116.63;;;17.89;46.91
53550;BME280;67273;52.914;-0.982;2023-02-02T10:56:50;102121.81;;;17.91;46.56
53550;BME280;67273;52.914;-0.982;2023-02-02T10:59:23;102118.00;;;17.85;46.96
53550;BME280;67273;52.914;-0.982;2023-02-02T11:01:51;102115.56;;;17.90;46.42
53550;BME280;67273;52.914;-0.982;2023-02-02T11:04:18;102112.44;;;17.93;46.38
53550;BME280;67273;52.914;-0.982;2023-02-02T11:07:06;102109.97;;;17.98;46.43
53550;BME280;67273;52.914;-0.982;2023-02-02T11:09:36;102106.00;;;18.01;46.01
53550;BME280;67273;52.914;-0.982;2023-02-02T11:12:12;102105.81;;;18.02;45.93
53550;BME280;67273;52.914;-0.982;2023-02-02T11:14:44;102109.16;;;18.04;45.81
53550;BME280;67273;52.914;-0.982;2023-02-02T11:17:18;102091.81;;;18.05;45.78
53550;BME280;67273;52.914;-0.982;2023-02-02T11:19:44;102090.75;;;18.07;45.96
53550;BME280;67273;52.914;-0.982;2023-02-02T11:22:30;102083.63;;;17.99;46.11
53550;BME280;67273;52.914;-0.982;2023-02-02T11:25:00;102089.00;;;17.92;45.85
53550;BME280;67273;52.914;-0.982;2023-02-02T11:27:30;102089.00;;;17.92;45.96
53550;BME280;67273;52.914;-0.982;2023-02-02T11:29:58;102099.44;;;17.89;45.09
53550;BME280;67273;52.914;-0.982;2023-02-02T11:32:27;102082.34;;;17.95;45.89
53550;BME280;67273;52.914;-0.982;2023-02-02T11:35:13;102082.38;;;18.01;45.54
53550;BME280;67273;52.914;-0.982;2023-02-02T11:37:55;102078.22;;;18.05;45.99
53550;BME280;67273;52.914;-0.982;2023-02-02T11:40:27;102074.44;;;18.07;45.90
53550;BME280;67273;52.914;-0.982;2023-02-02T11:42:54;102071.53;;;18.08;46.07
53550;BME280;67273;52.914;-0.982;2023-02-02T11:45:30;102073.22;;;18.09;45.02
53550;BME280;67273;52.914;-0.982;2023-02-02T11:48:04;102064.84;;;18.11;45.21
53550;BME280;67273;52.914;-0.982;2023-02-02T11:50:31;102056.69;;;18.11;45.29
53550;BME280;67273;52.914;-0.982;2023-02-02T11:52:58;102065.50;;;18.13;45.68
53550;BME280;67273;52.914;-0.982;2023-02-02T11:55:26;102064.44;;;18.14;45.78
53550;BME280;67273;52.914;-0.982;2023-02-02T11:58:19;102065.94;;;18.16;45.14
53550;BME280;67273;52.914;-0.982;2023-02-02T12:00:52;102066.56;;;18.18;45.12
53550;BME280;67273;52.914;-0.982;2023-02-02T12:03:23;102061.13;;;18.18;45.06
53550;BME280;67273;52.914;-0.982;2023-02-02T12:05:49;102061.75;;;18.20;45.29
53550;BME280;67273;52.914;-0.982;2023-02-02T12:08:16;102067.81;;;18.22;45.38
53550;BME280;67273;52.914;-0.982;2023-02-02T12:10:45;102065.34;;;18.21;44.78
53550;BME280;67273;52.914;-0.982;2023-02-02T12:13:21;102063.00;;;18.18;44.52
53550;BME280;67273;52.914;-0.982;2023-02-02T12:15:55;102056.06;;;18.15;44.47
53550;BME280;67273;52.914;-0.982;2023-02-02T12:18:37;102062.78;;;18.13;44.42
53550;BME280;67273;52.914;-0.982;2023-02-02T12:21:06;102049.56;;;18.10;44.21
53550;BME280;67273;52.914;-0.982;2023-02-02T12:23:49;102060.66;;;18.08;44.14
53550;BME280;67273;52.914;-0.982;2023-02-02T12:26:21;102062.94;;;18.04;44.25
53550;BME280;67273;52.914;-0.982;2023-02-02T12:29:11;102067.72;;;18.02;44.21
53550;BME280;67273;52.914;-0.982;2023-02-02T12:31:51;102058.09;;;18.00;43.90
53550;BME280;67273;52.914;-0.982;2023-02-02T12:34:29;102054.75;;;17.98;44.08
53550;BME280;67273;52.914;-0.982;2023-02-02T12:37:02;102054.75;;;17.98;43.99
53550;BME280;67273;52.914;-0.982;2023-02-02T12:39:42;102060.19;;;17.98;43.82
53550;BME280;67273;52.914;-0.982;2023-02-02T12:42:36;102045.53;;;17.99;43.97
53550;BME280;67273;52.914;-0.982;2023-02-02T12:48:09;102045.97;;;18.02;43.86
53550;BME280;67273;52.914;-0.982;2023-02-02T12:50:42;102033.44;;;18.08;43.68
53550;BME280;67273;52.914;-0.982;2023-02-02T12:53:23;102041.66;;;18.15;43.41
53550;BME280;67273;52.914;-0.982;2023-02-02T12:55:58;102035.63;;;18.26;43.46
53550;BME280;67273;52.914;-0.982;2023-02-02T12:58:31;102021.50;;;18.57;47.15